createdAt,value
2017-10-31T00:00:41.339Z,2.03
2017-10-31T00:03:09.300Z,1.97
2017-10-31T00:05:37.191Z,1.47
2017-10-31T00:08:05.123Z,2.17
2017-10-31T00:10:33.063Z,1.43
2017-10-31T00:13:00.983Z,2.97
2017-10-31T00:15:28.907Z,1.40
2017-10-31T00:17:56.857Z,1.70
2017-10-31T00:20:24.764Z,1.57
2017-10-31T00:22:52.881Z,1.73
2017-10-31T00:25:20.802Z,1.60
2017-10-31T00:27:48.767Z,1.87
2017-10-31T00:30:16.661Z,1.80
2017-10-31T00:32:44.582Z,1.70
2017-10-31T00:35:12.521Z,1.57
2017-10-31T00:37:40.470Z,1.77
2017-10-31T00:40:08.455Z,2.47
2017-10-31T00:42:36.347Z,1.40
2017-10-31T00:45:04.295Z,1.67
2017-10-31T00:47:32.240Z,1.53
2017-10-31T00:50:00.156Z,1.90
2017-10-31T00:52:28.133Z,1.80
2017-10-31T00:54:56.045Z,1.40
2017-10-31T00:57:24.125Z,1.40
2017-10-31T00:59:52.047Z,1.63
2017-10-31T01:02:19.982Z,1.37
2017-10-31T01:04:47.928Z,1.53
2017-10-31T01:07:15.842Z,1.23
2017-10-31T01:09:43.790Z,1.83
2017-10-31T01:12:11.730Z,1.30
2017-10-31T01:14:39.664Z,1.00
2017-10-31T01:17:07.611Z,1.60
2017-10-31T01:19:35.542Z,0.87
2017-10-31T01:22:03.446Z,1.00
2017-10-31T01:24:31.374Z,1.50
2017-10-31T01:26:59.370Z,0.90
2017-10-31T01:29:27.359Z,1.00
2017-10-31T01:31:55.263Z,0.90
2017-10-31T01:34:23.211Z,0.90
2017-10-31T01:36:51.136Z,1.07
2017-10-31T01:39:19.066Z,1.00
2017-10-31T01:41:46.986Z,1.73
2017-10-31T01:44:15.133Z,0.80
2017-10-31T01:46:43.558Z,0.93
2017-10-31T01:49:11.511Z,1.30
2017-10-31T01:51:39.409Z,1.10
2017-10-31T01:54:07.364Z,1.30
2017-10-31T01:56:35.310Z,1.40
2017-10-31T01:59:03.248Z,1.37
2017-10-31T02:01:31.178Z,1.00
2017-10-31T02:03:59.147Z,1.17
2017-10-31T02:06:27.113Z,1.00
2017-10-31T02:08:55.095Z,1.33
2017-10-31T02:11:23.014Z,1.50
2017-10-31T02:13:50.955Z,1.17
2017-10-31T02:16:18.975Z,2.00
2017-10-31T02:18:46.917Z,1.30
2017-10-31T02:21:15.362Z,1.40
2017-10-31T02:23:43.277Z,1.20
2017-10-31T02:26:11.278Z,1.90
2017-10-31T02:28:39.212Z,1.50
2017-10-31T02:31:07.151Z,1.00
2017-10-31T02:33:35.066Z,1.60
2017-10-31T02:36:03.000Z,1.07
2017-10-31T02:38:42.910Z,1.30
2017-10-31T02:41:10.827Z,1.17
2017-10-31T02:43:38.752Z,1.63
2017-10-31T02:46:06.697Z,1.60
2017-10-31T02:48:34.642Z,1.00
2017-10-31T02:51:02.937Z,1.43
2017-10-31T02:53:30.875Z,1.00
2017-10-31T02:55:58.802Z,1.23
2017-10-31T02:58:26.733Z,1.17
2017-10-31T03:00:54.676Z,1.50
2017-10-31T03:03:22.582Z,2.00
2017-10-31T03:05:50.539Z,1.17
2017-10-31T03:08:18.459Z,1.20
2017-10-31T03:10:46.414Z,1.83
2017-10-31T03:13:14.334Z,2.17
2017-10-31T03:15:42.310Z,1.17
2017-10-31T03:18:10.204Z,1.60
2017-10-31T03:20:38.154Z,1.20
2017-10-31T03:23:06.074Z,1.23
2017-10-31T03:25:34.142Z,1.13
2017-10-31T03:28:02.050Z,1.27
2017-10-31T03:30:30.154Z,1.53
2017-10-31T03:32:58.252Z,1.63
2017-10-31T03:35:26.182Z,1.53
2017-10-31T03:37:54.094Z,1.10
2017-10-31T03:40:22.030Z,1.37
2017-10-31T03:42:49.955Z,1.50
2017-10-31T03:45:17.979Z,1.20
2017-10-31T03:47:45.900Z,1.23
2017-10-31T03:50:13.907Z,1.20
2017-10-31T03:52:41.822Z,1.27
2017-10-31T03:55:09.762Z,1.97
2017-10-31T03:57:37.686Z,0.90
2017-10-31T04:00:05.596Z,1.90
2017-10-31T04:02:33.665Z,1.40
2017-10-31T04:05:01.595Z,1.50
2017-10-31T04:07:29.501Z,1.73
2017-10-31T04:09:57.514Z,1.07
2017-10-31T04:12:25.446Z,1.00
2017-10-31T04:14:53.365Z,1.70
2017-10-31T04:17:21.278Z,1.17
2017-10-31T04:19:49.249Z,1.30
2017-10-31T04:22:17.180Z,1.67
2017-10-31T04:24:45.104Z,1.47
2017-10-31T04:27:13.028Z,1.07
2017-10-31T04:29:40.958Z,1.23
2017-10-31T04:32:08.951Z,1.20
2017-10-31T04:34:36.884Z,1.40
2017-10-31T04:37:04.818Z,1.20
2017-10-31T04:39:32.769Z,1.30
2017-10-31T04:42:00.721Z,1.03
2017-10-31T04:44:28.645Z,2.87
2017-10-31T04:46:56.576Z,1.07
2017-10-31T04:49:24.501Z,1.20
2017-10-31T04:51:52.456Z,1.33
2017-10-31T04:54:20.399Z,1.50
2017-10-31T04:56:48.311Z,1.57
2017-10-31T04:59:16.225Z,1.60
2017-10-31T05:01:44.169Z,1.20
2017-10-31T05:04:12.095Z,1.70
2017-10-31T05:06:40.028Z,0.97
2017-10-31T05:09:07.926Z,1.10
2017-10-31T05:11:35.862Z,1.30
2017-10-31T05:14:03.806Z,1.70
2017-10-31T05:16:31.760Z,1.37
2017-10-31T05:18:59.689Z,2.10
2017-10-31T05:21:27.642Z,1.30
2017-10-31T05:23:55.574Z,2.00
2017-10-31T05:26:23.495Z,1.20
2017-10-31T05:28:51.420Z,2.90
2017-10-31T05:31:19.345Z,2.20
2017-10-31T05:33:47.273Z,2.10
2017-10-31T05:36:15.205Z,1.60
2017-10-31T05:38:43.134Z,1.93
2017-10-31T05:41:11.077Z,1.97
2017-10-31T05:43:39.022Z,2.10
2017-10-31T05:46:06.974Z,2.60
2017-10-31T05:48:34.887Z,1.40
2017-10-31T05:51:02.849Z,1.90
2017-10-31T05:53:30.765Z,2.20
2017-10-31T05:55:58.688Z,2.23
2017-10-31T05:58:26.675Z,1.60
2017-10-31T06:00:54.590Z,0.93
2017-10-31T06:03:22.582Z,1.10
2017-10-31T06:05:50.545Z,1.17
2017-10-31T06:08:19.419Z,1.60
2017-10-31T06:10:47.379Z,0.90
2017-10-31T06:13:15.287Z,1.23
2017-10-31T06:15:43.230Z,1.10
2017-10-31T06:18:11.165Z,1.13
2017-10-31T06:20:39.375Z,1.40
2017-10-31T06:23:12.858Z,1.47
2017-10-31T06:25:46.408Z,1.20
2017-10-31T06:28:19.959Z,1.43
2017-10-31T06:30:53.657Z,1.60
2017-10-31T06:33:21.622Z,1.20
2017-10-31T06:35:49.565Z,1.40
2017-10-31T06:38:17.532Z,1.00
2017-10-31T06:40:45.461Z,0.93
2017-10-31T06:43:13.761Z,1.43
2017-10-31T06:45:41.881Z,1.27
2017-10-31T06:48:09.781Z,1.30
2017-10-31T06:50:37.740Z,1.17
2017-10-31T06:53:05.659Z,1.27
2017-10-31T06:55:34.094Z,1.20
2017-10-31T06:58:02.071Z,1.43
2017-10-31T07:00:30.008Z,1.20
2017-10-31T07:02:57.904Z,1.40
2017-10-31T07:05:25.837Z,1.20
2017-10-31T07:07:53.776Z,1.47
2017-10-31T07:10:21.692Z,1.07
2017-10-31T07:12:49.620Z,1.53
2017-10-31T07:15:17.584Z,0.97
2017-10-31T07:17:45.523Z,1.00
2017-10-31T07:20:13.428Z,1.80
2017-10-31T07:22:41.348Z,1.00
2017-10-31T07:25:09.253Z,1.00
2017-10-31T07:27:37.184Z,0.73
2017-10-31T07:30:05.094Z,0.70
2017-10-31T07:32:33.551Z,0.73
2017-10-31T07:35:01.539Z,0.90
2017-10-31T07:37:29.454Z,0.70
2017-10-31T07:39:57.386Z,0.70
2017-10-31T07:42:25.310Z,0.73
2017-10-31T07:44:53.301Z,0.77
2017-10-31T07:47:21.235Z,1.33
2017-10-31T07:49:49.156Z,2.43
2017-10-31T07:52:17.090Z,1.20
2017-10-31T07:54:45.382Z,0.90
2017-10-31T07:57:14.301Z,1.20
2017-10-31T07:59:42.390Z,1.27
2017-10-31T08:02:10.362Z,1.10
2017-10-31T08:04:38.281Z,0.90
2017-10-31T08:07:06.253Z,1.10
2017-10-31T08:09:34.161Z,2.10
2017-10-31T08:12:02.146Z,1.77
2017-10-31T08:14:30.076Z,1.70
2017-10-31T08:16:58.030Z,1.50
2017-10-31T08:19:25.938Z,1.40
2017-10-31T08:21:53.892Z,1.77
2017-10-31T08:24:21.825Z,1.40
2017-10-31T08:26:49.738Z,1.70
2017-10-31T08:29:17.638Z,1.87
2017-10-31T08:31:45.597Z,1.70
2017-10-31T08:34:13.530Z,7.03
2017-10-31T08:36:41.529Z,2.87
2017-10-31T08:39:09.484Z,1.63
2017-10-31T08:41:37.458Z,1.87
2017-10-31T08:44:05.394Z,2.20
2017-10-31T08:46:33.544Z,4.17
2017-10-31T08:49:01.481Z,2.60
2017-10-31T08:51:29.410Z,2.70
2017-10-31T08:53:57.334Z,2.50
2017-10-31T08:56:25.457Z,2.20
2017-10-31T08:58:53.444Z,1.63
2017-10-31T09:01:22.377Z,1.80
2017-10-31T09:03:50.551Z,1.50
2017-10-31T09:06:18.534Z,1.60
2017-10-31T09:08:46.450Z,1.40
2017-10-31T09:11:14.424Z,1.67
2017-10-31T09:13:42.363Z,1.70
2017-10-31T09:16:10.380Z,1.37
2017-10-31T09:18:38.306Z,1.57
2017-10-31T09:21:06.225Z,1.90
2017-10-31T09:23:34.159Z,1.20
2017-10-31T09:26:02.141Z,1.90
2017-10-31T09:28:30.102Z,2.50
2017-10-31T09:30:58.048Z,2.00
2017-10-31T09:33:26.126Z,1.80
2017-10-31T09:35:54.096Z,1.70
2017-10-31T09:38:22.074Z,5.20
2017-10-31T09:40:49.990Z,2.80
2017-10-31T09:43:17.970Z,2.00
2017-10-31T09:45:45.894Z,1.83
2017-10-31T09:48:13.823Z,1.43
2017-10-31T09:50:41.752Z,2.10
2017-10-31T09:53:09.761Z,3.80
2017-10-31T09:55:37.715Z,1.83
2017-10-31T09:58:05.683Z,1.40
2017-10-31T10:00:33.635Z,2.30
2017-10-31T10:03:01.567Z,2.10
2017-10-31T10:05:29.644Z,2.60
2017-10-31T10:07:58.723Z,1.90
2017-10-31T10:10:26.647Z,2.00
2017-10-31T10:12:54.570Z,2.80
2017-10-31T10:15:22.484Z,3.43
2017-10-31T10:17:50.458Z,2.23
2017-10-31T10:20:18.559Z,1.70
2017-10-31T10:22:46.491Z,2.30
2017-10-31T10:25:14.414Z,1.80
2017-10-31T10:27:42.382Z,1.90
2017-10-31T10:30:10.341Z,1.90
2017-10-31T10:32:38.378Z,2.80
2017-10-31T10:35:06.366Z,2.00
2017-10-31T10:37:34.344Z,2.37
2017-10-31T10:40:02.316Z,3.20
2017-10-31T10:42:30.274Z,2.37
2017-10-31T10:44:58.200Z,2.33
2017-10-31T10:47:26.146Z,1.90
2017-10-31T10:49:54.093Z,2.10
2017-10-31T10:52:23.250Z,2.30
2017-10-31T10:54:51.208Z,2.00
2017-10-31T10:57:19.135Z,2.43
2017-10-31T10:59:47.060Z,2.17
2017-10-31T11:02:15.004Z,2.20
2017-10-31T11:04:42.932Z,3.27
2017-10-31T11:07:10.855Z,2.73
2017-10-31T11:09:38.782Z,2.10
2017-10-31T11:12:06.737Z,2.00
2017-10-31T11:14:34.757Z,2.60
2017-10-31T11:17:04.248Z,2.50
2017-10-31T11:19:32.433Z,2.40
2017-10-31T11:22:00.519Z,2.90
2017-10-31T11:24:28.892Z,2.70
2017-10-31T11:26:58.152Z,1.90
2017-10-31T11:29:27.479Z,2.40
2017-10-31T11:31:55.608Z,1.60
2017-10-31T11:34:23.538Z,2.00
2017-10-31T11:36:51.463Z,2.07
2017-10-31T11:39:19.426Z,2.30
2017-10-31T11:41:47.391Z,1.93
2017-10-31T11:44:15.310Z,2.30
2017-10-31T11:46:43.259Z,2.53
2017-10-31T11:49:11.198Z,2.10
2017-10-31T11:51:39.173Z,3.07
2017-10-31T11:54:07.226Z,2.40
2017-10-31T11:56:35.157Z,2.73
2017-10-31T11:59:03.101Z,3.40
2017-10-31T12:01:31.072Z,2.00
2017-10-31T12:03:59.046Z,2.70
2017-10-31T12:06:26.998Z,2.30
2017-10-31T12:08:56.433Z,2.50
2017-10-31T12:11:25.794Z,3.03
2017-10-31T12:13:53.767Z,3.00
2017-10-31T12:16:23.051Z,2.40
2017-10-31T12:18:51.030Z,3.20
2017-10-31T12:21:19.015Z,2.60
2017-10-31T12:23:47.043Z,2.23
2017-10-31T12:26:15.019Z,3.00
2017-10-31T12:28:42.964Z,2.30
2017-10-31T12:31:10.916Z,2.00
2017-10-31T12:33:38.857Z,2.77
2017-10-31T12:36:07.249Z,2.57
2017-10-31T12:38:35.551Z,2.50
2017-10-31T12:41:03.670Z,2.03
2017-10-31T12:43:31.766Z,2.03
2017-10-31T12:45:59.861Z,1.63
2017-10-31T12:48:27.972Z,1.80
2017-10-31T12:50:55.889Z,2.20
2017-10-31T12:53:23.870Z,1.70
2017-10-31T12:55:51.820Z,2.40
2017-10-31T12:58:19.755Z,2.43
2017-10-31T13:00:47.667Z,2.07
2017-10-31T13:03:15.964Z,2.20
2017-10-31T13:05:43.894Z,2.20
2017-10-31T13:08:11.849Z,2.60
2017-10-31T13:10:39.758Z,2.40
2017-10-31T13:13:07.727Z,2.27
2017-10-31T13:15:35.670Z,2.57
2017-10-31T13:18:03.606Z,3.10
2017-10-31T13:20:31.603Z,2.40
2017-10-31T13:23:00.400Z,2.53
2017-10-31T13:25:29.074Z,3.03
2017-10-31T13:27:58.349Z,2.93
2017-10-31T13:30:26.758Z,2.43
2017-10-31T13:32:54.987Z,2.77
2017-10-31T13:35:23.177Z,3.50
2017-10-31T13:37:52.786Z,3.40
2017-10-31T13:40:21.646Z,2.80
2017-10-31T13:42:50.398Z,3.07
2017-10-31T13:45:18.319Z,3.30
2017-10-31T13:47:47.082Z,2.77
2017-10-31T13:50:15.775Z,2.73
2017-10-31T13:52:43.696Z,2.83
2017-10-31T13:55:11.643Z,3.20
2017-10-31T13:57:39.582Z,4.00
2017-10-31T14:00:08.537Z,3.70
2017-10-31T14:02:38.217Z,3.90
2017-10-31T14:05:06.792Z,3.50
2017-10-31T14:07:35.029Z,4.63
2017-10-31T14:10:03.186Z,3.67
2017-10-31T14:12:31.931Z,4.27
2017-10-31T14:14:59.904Z,2.90
2017-10-31T14:17:27.807Z,3.03
2017-10-31T14:19:57.097Z,2.53
2017-10-31T14:22:25.013Z,2.80
2017-10-31T14:24:53.094Z,3.50
2017-10-31T14:27:21.053Z,2.50
2017-10-31T14:29:48.986Z,3.13
2017-10-31T14:32:17.020Z,3.10
2017-10-31T14:34:44.984Z,3.40
2017-10-31T14:37:12.910Z,4.77
2017-10-31T14:39:40.850Z,5.20
2017-10-31T14:42:08.794Z,4.70
2017-10-31T14:44:36.741Z,4.90
2017-10-31T14:47:04.660Z,5.27
2017-10-31T14:49:32.577Z,5.40
2017-10-31T14:52:00.767Z,5.10
2017-10-31T14:54:28.680Z,7.07
2017-10-31T14:56:56.676Z,5.97
2017-10-31T14:59:24.589Z,5.60
2017-10-31T15:01:52.544Z,6.40
2017-10-31T15:04:20.488Z,6.40
2017-10-31T15:06:48.390Z,6.53
2017-10-31T15:09:16.381Z,6.93
2017-10-31T15:11:44.296Z,6.57
2017-10-31T15:14:12.209Z,7.47
2017-10-31T15:16:40.121Z,7.97
2017-10-31T15:19:08.065Z,10.03
2017-10-31T15:21:35.979Z,8.93
2017-10-31T15:24:03.920Z,8.73
2017-10-31T15:26:31.871Z,9.33
2017-10-31T15:28:59.765Z,9.73
2017-10-31T15:31:27.720Z,10.87
2017-10-31T15:33:55.675Z,10.57
2017-10-31T15:36:23.583Z,10.27
2017-10-31T15:38:51.517Z,11.87
2017-10-31T15:41:19.447Z,11.60
2017-10-31T15:43:47.386Z,11.70
2017-10-31T15:46:15.330Z,10.70
2017-10-31T15:48:43.298Z,11.00
2017-10-31T15:51:11.248Z,11.73
2017-10-31T15:53:39.188Z,11.90
2017-10-31T15:56:07.150Z,11.83
2017-10-31T15:58:35.097Z,11.33
2017-10-31T16:01:03.038Z,10.90
2017-10-31T16:03:30.980Z,11.33
2017-10-31T16:05:58.894Z,12.50
2017-10-31T16:08:26.826Z,11.57
2017-10-31T16:10:54.760Z,12.13
2017-10-31T16:13:22.709Z,10.83
2017-10-31T16:15:50.661Z,11.83
2017-10-31T16:18:18.601Z,10.10
2017-10-31T16:20:46.531Z,10.20
2017-10-31T16:23:14.465Z,11.30
2017-10-31T16:25:42.382Z,10.80
2017-10-31T16:28:10.318Z,9.90
2017-10-31T16:30:38.247Z,9.60
2017-10-31T16:33:06.171Z,9.27
2017-10-31T16:35:34.113Z,8.80
2017-10-31T16:38:02.057Z,8.70
2017-10-31T16:40:29.997Z,9.80
2017-10-31T16:42:57.938Z,10.00
2017-10-31T16:45:25.858Z,8.77
2017-10-31T16:47:54.445Z,8.77
2017-10-31T16:50:22.373Z,9.10
2017-10-31T16:52:50.301Z,8.27
2017-10-31T16:55:18.208Z,9.43
2017-10-31T16:57:46.146Z,8.10
2017-10-31T17:00:14.127Z,8.10
2017-10-31T17:02:42.093Z,7.53
2017-10-31T17:05:10.022Z,8.07
2017-10-31T17:07:37.955Z,8.03
2017-10-31T17:10:05.896Z,8.43
2017-10-31T17:12:33.829Z,7.63
2017-10-31T17:15:01.742Z,8.37
2017-10-31T17:17:29.650Z,7.83
2017-10-31T17:19:57.750Z,8.87
2017-10-31T17:22:25.801Z,8.00
2017-10-31T17:24:53.767Z,8.00
2017-10-31T17:27:21.689Z,8.70
2017-10-31T17:29:49.622Z,8.30
2017-10-31T17:32:17.623Z,8.40
2017-10-31T17:34:45.647Z,9.13
2017-10-31T17:37:13.610Z,8.57
2017-10-31T17:39:41.556Z,8.03
2017-10-31T17:42:11.206Z,28.80
2017-10-31T17:44:39.298Z,9.47
2017-10-31T17:47:07.279Z,9.30
2017-10-31T17:49:35.209Z,8.53
2017-10-31T17:52:03.256Z,9.60
2017-10-31T17:54:31.309Z,10.40
2017-10-31T17:56:59.328Z,10.90
2017-10-31T17:59:27.305Z,10.43
2017-10-31T18:01:55.306Z,10.60
2017-10-31T18:04:23.275Z,10.93
2017-10-31T18:06:51.327Z,11.50
2017-10-31T18:09:19.471Z,12.00
2017-10-31T18:11:47.616Z,11.03
2017-10-31T18:14:15.721Z,11.43
2017-10-31T18:16:43.832Z,10.67
2017-10-31T18:19:13.717Z,12.73
2017-10-31T18:21:42.374Z,17.63
2017-10-31T18:24:10.638Z,11.50
2017-10-31T18:26:39.417Z,12.60
2017-10-31T18:29:07.388Z,11.73
2017-10-31T18:31:35.330Z,12.97
2017-10-31T18:34:03.332Z,12.60
2017-10-31T18:36:31.270Z,13.20
2017-10-31T18:38:59.301Z,13.23
2017-10-31T18:41:27.559Z,13.67
2017-10-31T18:43:55.714Z,13.87
2017-10-31T18:46:23.694Z,15.00
2017-10-31T18:48:51.767Z,15.40
2017-10-31T18:51:19.712Z,14.03
2017-10-31T18:53:47.683Z,13.60
2017-10-31T18:56:15.672Z,14.07
2017-10-31T18:58:43.665Z,13.97
2017-10-31T19:01:11.618Z,14.43
2017-10-31T19:03:39.574Z,15.10
2017-10-31T19:06:07.547Z,13.70
2017-10-31T19:08:35.603Z,13.97
2017-10-31T19:11:03.704Z,13.97
2017-10-31T19:13:31.734Z,13.10
2017-10-31T19:15:59.937Z,13.80
2017-10-31T19:18:27.899Z,11.93
2017-10-31T19:20:56.011Z,14.57
2017-10-31T19:23:24.006Z,12.73
2017-10-31T19:25:52.138Z,13.43
2017-10-31T19:28:20.172Z,13.83
2017-10-31T19:30:48.231Z,12.70
2017-10-31T19:33:16.178Z,14.20
2017-10-31T19:35:44.179Z,14.73
2017-10-31T19:38:12.175Z,13.87
2017-10-31T19:40:40.373Z,13.90
2017-10-31T19:43:08.530Z,15.70
2017-10-31T19:45:36.682Z,14.67
2017-10-31T19:48:04.797Z,14.80
2017-10-31T19:50:32.905Z,15.67
2017-10-31T19:53:00.882Z,14.03
2017-10-31T19:55:28.852Z,15.20
2017-10-31T19:57:56.863Z,15.03
2017-10-31T20:00:24.887Z,16.43
2017-10-31T20:02:52.917Z,15.60
2017-10-31T20:05:20.884Z,17.07
2017-10-31T20:07:48.861Z,16.40
2017-10-31T20:10:16.826Z,14.83
2017-10-31T20:12:44.758Z,16.00
2017-10-31T20:15:12.706Z,16.13
2017-10-31T20:17:40.683Z,17.43
2017-10-31T20:20:08.638Z,17.43
2017-10-31T20:22:36.597Z,16.33
2017-10-31T20:25:04.711Z,15.77
2017-10-31T20:27:32.748Z,16.60
2017-10-31T20:30:00.673Z,16.70
2017-10-31T20:32:28.678Z,18.03
2017-10-31T20:34:56.624Z,17.60
2017-10-31T20:37:24.592Z,17.20
2017-10-31T20:39:53.201Z,17.10
2017-10-31T20:42:21.154Z,17.70
2017-10-31T20:44:49.147Z,16.63
2017-10-31T20:47:17.088Z,17.20
2017-10-31T20:49:45.042Z,17.63
2017-10-31T20:52:12.986Z,17.87
2017-10-31T20:54:40.929Z,18.70
2017-10-31T20:57:08.852Z,19.53
2017-10-31T20:59:36.858Z,17.90
2017-10-31T21:02:04.885Z,17.50
2017-10-31T21:04:33.065Z,19.20
2017-10-31T21:07:01.053Z,20.03
2017-10-31T21:09:29.044Z,20.33
2017-10-31T21:11:57.038Z,20.73
2017-10-31T21:14:25.037Z,22.00
2017-10-31T21:16:52.994Z,21.83
2017-10-31T21:19:21.952Z,24.87
2017-10-31T21:21:49.940Z,23.90
2017-10-31T21:24:17.986Z,23.57
2017-10-31T21:26:46.100Z,22.30
2017-10-31T21:29:14.184Z,22.87
2017-10-31T21:31:42.272Z,24.40
2017-10-31T21:34:10.305Z,24.27
2017-10-31T21:36:38.456Z,25.87
2017-10-31T21:39:06.431Z,25.47
2017-10-31T21:41:34.682Z,26.27
2017-10-31T21:44:02.648Z,25.40
2017-10-31T21:46:30.676Z,27.80
2017-10-31T21:48:58.639Z,27.13
2017-10-31T21:51:26.665Z,26.80
2017-10-31T21:53:54.615Z,28.93
2017-10-31T21:56:22.731Z,29.07
2017-10-31T21:58:50.754Z,27.47
2017-10-31T22:01:18.721Z,29.13
2017-10-31T22:03:46.710Z,31.83
2017-10-31T22:06:14.736Z,31.50
2017-10-31T22:08:42.730Z,32.97
2017-10-31T22:11:10.721Z,31.30
2017-10-31T22:13:38.763Z,30.30
2017-10-31T22:16:06.853Z,32.07
2017-10-31T22:18:34.943Z,32.47
2017-10-31T22:21:03.032Z,32.97
2017-10-31T22:23:31.714Z,30.37
2017-10-31T22:25:59.645Z,32.90
2017-10-31T22:28:28.948Z,31.73
2017-10-31T22:30:56.941Z,35.67
2017-10-31T22:33:24.899Z,34.10
2017-10-31T22:35:52.858Z,33.23
2017-10-31T22:38:20.892Z,37.40
2017-10-31T22:40:48.918Z,35.20
2017-10-31T22:43:16.962Z,37.97
2017-10-31T22:45:44.920Z,36.03
2017-10-31T22:48:12.941Z,36.57
2017-10-31T22:50:41.022Z,36.07
2017-10-31T22:53:08.987Z,38.23
2017-10-31T22:55:36.950Z,38.90
2017-10-31T22:58:04.919Z,38.20
2017-10-31T23:00:32.871Z,38.40
2017-10-31T23:03:00.834Z,38.00
2017-10-31T23:05:29.160Z,40.83
2017-10-31T23:07:57.141Z,41.90
2017-10-31T23:10:25.207Z,41.00
2017-10-31T23:12:53.354Z,38.80
2017-10-31T23:15:21.383Z,42.30
2017-10-31T23:17:49.952Z,41.27
2017-10-31T23:20:17.922Z,40.73
2017-10-31T23:22:46.380Z,42.93
2017-10-31T23:25:16.477Z,40.47
2017-10-31T23:27:44.470Z,39.50
2017-10-31T23:30:12.437Z,39.17
2017-10-31T23:32:40.447Z,39.17
2017-10-31T23:35:08.410Z,38.97
2017-10-31T23:37:36.448Z,41.93
2017-10-31T23:40:04.467Z,41.77
2017-10-31T23:42:32.459Z,42.23
2017-10-31T23:45:00.458Z,42.43
2017-10-31T23:47:28.399Z,42.67
2017-10-31T23:49:56.438Z,44.53
2017-10-31T23:52:24.410Z,42.73
2017-10-31T23:54:52.437Z,42.60
2017-10-31T23:57:20.441Z,43.07
2017-10-31T23:59:48.496Z,41.83
